• Join FlightAware (Why Join?)
  • Login
  • US Flag 
08:25PM EST


 

Airport Tracker/Info


-or-


 

Live Flight TrackerFlight Track Log ✈ LXJ549 ✈ 14-Jul-2013 ✈ KTEB - KBED

Flight Track Log - Related Links

Times and Time Zones

All times are in EDT time to prevent confusion due to time zone crossing. See the LXJ549 flight status page for this flight to view local times or setup timezone preferences in your user account.

Time Position Orientation Groundspeed Altitude Reporting Facility
EDT Latitude Longitude Course Direction KTS MPH feet Rate Location/Type
01:46PM 40.8167 -74.2333 270° West 246 283 5,700  Level New York TRACON
01:47PM 40.8833 -74.2667 339° North 283 326 6,100 180 Climbing New York TRACON
01:48PM 40.9667 -74.2333 17° North 281 323 6,100 1,200 Level New York TRACON
01:49PM 41.0333 -74.1833 29° Northeast 279 321 8,600 2,460 Climbing New York TRACON
01:50PM 41.1000 -74.1167 37° Northeast 331 381 11,100 1,200 Climbing New York TRACON
01:51PM 40.8872 -74.0001 51° Northeast  Level Estimated
01:51PM 41.1667 -74.0000 53° Northeast 387 445 11,100  Level New York TRACON
01:53PM 41.2258 -73.7456 73° East 405 466 15,900 1,980 Climbing Boston Center
01:54PM 41.2606 -73.6053 72° East 400 460 17,100 540 Climbing Boston Center
01:55PM 41.2997 -73.4569 71° East 405 466 17,000 -60 Descending Boston Center
01:56PM 41.3361 -73.3275 69° East 405 466 17,000  Level Boston Center
01:57PM 41.3769 -73.1703 71° East 405 466 17,000 -60 Level Boston Center
01:58PM 41.4233 -73.0464 63° Northeast 405 466 16,900 -1,020 Descending Boston Center
01:59PM 41.4867 -72.9056 59° Northeast 405 466 15,000 -960 Descending Boston Center
02:00PM 41.5453 -72.7978 54° Northeast 399 459 15,000  Level Boston Center
02:01PM 41.6269 -72.6844 46° Northeast 387 445 15,000  Level Boston Center
02:02PM 41.6981 -72.5875 45° Northeast 387 445 15,000 -300 Level Boston Center
02:03PM 41.7564 -72.5069 46° Northeast 397 457 14,600 -1,020 Descending Boston Center
02:04PM 41.7836 -72.4708 45° Northeast 387 445 13,800 -2,340 Descending Boston Center
02:05PM 41.8711 -72.3453 47° Northeast 382 440 11,000 -1,980 Descending Boston Center
02:06PM 41.9167 -72.2475 58° Northeast 359 413 9,900 -1,320 Descending Boston Center
02:06PM 41.9458 -72.1861 57° Northeast 312 359 9,100 -1,800 Descending Boston Center
02:07PM 41.9750 -72.1553 38° Northeast 309 356 8,100 -2,160 Descending Boston Center
02:08PM 42.0289 -72.0992 38° Northeast 272 313 5,900 -1,740 Descending Boston Center
02:08PM 42.0828 -72.0400 39° Northeast 268 308 5,000 -900 Descending Boston Center
02:09PM 42.1411 -71.9781 38° Northeast 267 307 4,300 -540 Descending Boston Center
02:10PM 42.1950 -71.9217 38° Northeast 265 305 4,000 -180 Descending Boston Center
02:12PM 42.2656 -71.8453 39° Northeast 267 307 4,000  Level Boston Center
02:13PM 42.3172 -71.7886 39° Northeast 267 307 4,000  Level Boston Center
02:14PM 42.3750 -71.7067 46° Northeast 267 307 4,000  Level Boston Center
02:15PM 42.4100 -71.6303 58° Northeast 267 307 4,000  Level Boston Center
02:16PM 42.4572 -71.5339 56° Northeast 272 313 4,000 -180 Level Boston Center
02:16PM 42.4833 -71.4667 62° Northeast 266 306 3,700 -1,020 Descending KA90
02:18PM 42.5167 -71.3500 69° East 254 292 2,000 -840 Descending KA90
02:18PM 42.5167 -71.2833 90° East 219 252 2,000  Level KA90
02:19PM 42.5167 -71.2167 90° East 154 177 2,000 -300 Level KA90
02:20PM 42.4667 -71.2000 166° South 147 169 1,400 -720 Descending KA90
02:22PM 42.4667 -71.2500 270° West 128 147 500 4,080 Descending KA90
02:24PM 42.4428 -71.3092 241° Southwest 81 93 15,000 6,480 Climbing Boston Center